Time;durP1;ratioP1;P1;durP2;ratioP2;P2;SDS_P1;SDS_P2;PMS_P1;PMS_P2;Temp;Humidity;BMP_temperature;BMP_pressure;BME280_temperature;BME280_humidity;BME280_pressure;Samples;Min_cycle;Max_cycle;Signal;HPM_P1;HPM_P2
2020/12/13 00:00:23;;;;;;;;;;;7.40;99.90;;;;;;5098232;28;19919;-76
2020/12/13 00:02:48;;;;;;;;;;;7.30;99.90;;;;;;5097445;28;20002;-75
2020/12/13 00:05:14;;;;;;;;;;;7.40;99.90;;;;;;5109357;28;19903;-75
2020/12/13 00:07:39;;;;;;;;;;;7.40;99.90;;;;;;5094657;28;19957;-75
2020/12/13 00:10:05;;;;;;;;;;;7.30;99.90;;;;;;5110410;28;19903;-77
2020/12/13 00:12:30;;;;;;;;;;;7.30;99.90;;;;;;5094269;28;19908;-75
2020/12/13 00:14:56;;;;;;;;;;;7.30;99.90;;;;;;5105756;28;20016;-76
2020/12/13 00:17:21;;;;;;;;;;;7.30;99.90;;;;;;5102530;28;19998;-76
2020/12/13 00:19:47;;;;;;;;;;;7.20;99.90;;;;;;5110085;28;19962;-76
2020/12/13 00:22:14;;;;;;;;;;;7.20;99.90;;;;;;5099178;28;19908;-76
2020/12/13 00:24:39;;;;;;;;;;;7.00;99.90;;;;;;5100992;28;19903;-76
2020/12/13 00:27:05;;;;;;;;;;;6.80;99.90;;;;;;5103327;28;20283;-75
2020/12/13 00:29:30;;;;;;;;;;;6.80;99.90;;;;;;5100241;28;19904;-76
2020/12/13 00:31:56;;;;;;;;;;;6.70;99.90;;;;;;5102688;28;20364;-77
2020/12/13 00:34:21;;;;;;;;;;;6.70;99.90;;;;;;5099144;28;20015;-75
2020/12/13 00:36:52;;;;;;;;;;;6.80;99.90;;;;;;5100648;28;19908;-76
2020/12/13 00:39:18;;;;;;;;;;;6.90;99.90;;;;;;5097687;28;20046;-76
2020/12/13 00:41:50;;;;;;;;;;;6.90;99.90;;;;;;5101510;27;19952;-76
2020/12/13 00:44:16;;;;;;;;;;;7.00;99.90;;;;;;5095546;28;20358;-76
2020/12/13 00:46:42;;;;;;;;;;;7.00;99.90;;;;;;5103399;28;19958;-75
2020/12/13 00:49:07;;;;;;;;;;;7.00;99.90;;;;;;5103408;28;19904;-75
2020/12/13 00:51:33;;;;;;;;;;;7.00;99.90;;;;;;5102795;28;19907;-75
2020/12/13 00:53:58;;;;;;;;;;;6.90;99.90;;;;;;5096314;28;19915;-76
2020/12/13 00:56:24;;;;;;;;;;;6.80;99.90;;;;;;5101410;28;20008;-76
2020/12/13 00:58:49;;;;;;;;;;;6.70;99.90;;;;;;5078124;28;20007;-76
2020/12/13 01:01:15;;;;;;;;;;;6.90;99.90;;;;;;5103141;27;19919;-76
2020/12/13 01:03:40;;;;;;;;;;;7.00;99.90;;;;;;5100303;28;19923;-76
2020/12/13 01:06:06;;;;;;;;;;;6.80;99.90;;;;;;5106651;28;20364;-76
2020/12/13 01:08:31;;;;;;;;;;;6.90;99.90;;;;;;5099054;28;19923;-75
2020/12/13 01:10:57;;;;;;;;;;;6.90;99.90;;;;;;5105630;28;20336;-76
2020/12/13 01:13:23;;;;;;;;;;;7.00;99.90;;;;;;5097430;28;19962;-76
2020/12/13 01:15:50;;;;;;;;;;;7.00;99.90;;;;;;5104084;28;19972;-76
2020/12/13 01:18:16;;;;;;;;;;;7.00;99.90;;;;;;5093603;28;20363;-76
2020/12/13 01:20:41;;;;;;;;;;;6.90;99.90;;;;;;5105433;28;19922;-76
2020/12/13 01:23:08;;;;;;;;;;;7.00;99.90;;;;;;5088981;28;19995;-75
2020/12/13 01:25:33;;;;;;;;;;;6.90;99.90;;;;;;5092594;28;19927;-75
2020/12/13 01:27:59;;;;;;;;;;;7.00;99.90;;;;;;5080285;28;20027;-75
2020/12/13 01:30:24;;;;;;;;;;;6.90;99.90;;;;;;5105020;28;20381;-75
2020/12/13 01:32:50;;;;;;;;;;;7.00;99.90;;;;;;5093996;28;20021;-75
2020/12/13 01:35:15;;;;;;;;;;;7.00;99.90;;;;;;5088989;28;19920;-75
2020/12/13 01:37:41;;;;;;;;;;;7.00;99.90;;;;;;5099937;28;20050;-74
2020/12/13 01:40:07;;;;;;;;;;;6.90;99.90;;;;;;5102081;28;19904;-74
2020/12/13 01:42:42;;;;;;;;;;;7.00;99.90;;;;;;5087825;28;20052;-75
2020/12/13 01:45:08;;;;;;;;;;;7.10;99.90;;;;;;5100897;28;19915;-75
2020/12/13 01:47:34;;;;;;;;;;;6.90;99.90;;;;;;5091173;28;19930;-75
2020/12/13 01:49:59;;;;;;;;;;;6.90;99.90;;;;;;5097054;28;19919;-75
2020/12/13 01:52:47;;;;;;;;;;;7.00;99.90;;;;;;5091925;28;19912;-75
2020/12/13 01:55:17;;;;;;;;;;;7.00;99.90;;;;;;5087852;28;19918;-75
2020/12/13 01:57:45;;;;;;;;;;;7.10;99.90;;;;;;5094876;28;19904;-74
2020/12/13 02:00:11;;;;;;;;;;;7.00;99.90;;;;;;5100248;28;19903;-75
2020/12/13 02:02:44;;;;;;;;;;;7.00;99.90;;;;;;5095692;28;19973;-75
2020/12/13 02:05:12;;;;;;;;;;;7.00;99.90;;;;;;5098962;28;19907;-75
2020/12/13 02:07:38;;;;;;;;;;;7.00;99.90;;;;;;5094345;28;20549;-75
2020/12/13 02:10:07;;;;;;;;;;;6.90;99.90;;;;;;5108136;28;19998;-75
2020/12/13 02:12:33;;;;;;;;;;;7.00;99.90;;;;;;5095010;28;19927;-75
2020/12/13 02:14:59;;;;;;;;;;;6.90;99.90;;;;;;5105713;28;20460;-75
2020/12/13 02:17:24;;;;;;;;;;;7.00;99.90;;;;;;5099768;28;19908;-74
2020/12/13 02:19:50;;;;;;;;;;;6.90;99.90;;;;;;5107996;28;19908;-75
2020/12/13 02:22:16;;;;;;;;;;;7.00;99.90;;;;;;5093770;28;19915;-75
2020/12/13 02:24:41;;;;;;;;;;;6.70;99.90;;;;;;5098469;28;20413;-76
2020/12/13 02:27:08;;;;;;;;;;;6.70;99.90;;;;;;5102973;28;20425;-75
2020/12/13 02:29:34;;;;;;;;;;;6.80;99.90;;;;;;5096328;28;19954;-75
2020/12/13 02:31:59;;;;;;;;;;;6.80;99.90;;;;;;5084978;28;19912;-75
2020/12/13 02:34:25;;;;;;;;;;;6.70;99.90;;;;;;5109047;28;19912;-75
2020/12/13 02:36:51;;;;;;;;;;;6.70;99.90;;;;;;5104371;28;20347;-75
2020/12/13 02:39:16;;;;;;;;;;;6.70;99.90;;;;;;5106342;28;19903;-76
2020/12/13 02:41:42;;;;;;;;;;;6.70;99.90;;;;;;5105213;28;19916;-75
2020/12/13 02:44:07;;;;;;;;;;;6.70;99.90;;;;;;5105353;28;19903;-75
2020/12/13 02:46:33;;;;;;;;;;;6.60;99.90;;;;;;5105211;28;19919;-76
2020/12/13 02:48:58;;;;;;;;;;;6.60;99.90;;;;;;5107968;28;19910;-75
2020/12/13 02:51:24;;;;;;;;;;;6.70;99.90;;;;;;5105170;28;19908;-75
2020/12/13 02:53:49;;;;;;;;;;;6.70;99.90;;;;;;5099431;28;19914;-75
2020/12/13 02:56:15;;;;;;;;;;;6.60;99.90;;;;;;5105333;28;19912;-75
2020/12/13 02:58:41;;;;;;;;;;;6.60;99.90;;;;;;5086953;28;19925;-76
2020/12/13 03:01:08;;;;;;;;;;;6.60;99.90;;;;;;5106615;28;19908;-76
2020/12/13 03:03:33;;;;;;;;;;;6.50;99.90;;;;;;5103713;28;20274;-75
2020/12/13 03:05:59;;;;;;;;;;;6.50;99.90;;;;;;5107468;28;19923;-75
2020/12/13 03:08:24;;;;;;;;;;;6.50;99.90;;;;;;5101642;28;20003;-75
2020/12/13 03:10:50;;;;;;;;;;;6.60;99.90;;;;;;5108752;28;19912;-76
2020/12/13 03:13:15;;;;;;;;;;;6.60;99.90;;;;;;5100013;28;19904;-75
2020/12/13 03:15:41;;;;;;;;;;;6.50;99.90;;;;;;5105689;28;19927;-75
2020/12/13 03:18:07;;;;;;;;;;;6.40;99.90;;;;;;5094360;28;19950;-76
2020/12/13 03:20:32;;;;;;;;;;;6.20;99.90;;;;;;5102756;28;19920;-75
2020/12/13 03:22:58;;;;;;;;;;;6.30;99.90;;;;;;5093376;28;19907;-75
2020/12/13 03:25:23;;;;;;;;;;;6.30;99.90;;;;;;5103658;28;20028;-75
2020/12/13 03:27:49;;;;;;;;;;;6.20;99.90;;;;;;5100107;28;20380;-75
2020/12/13 03:30:14;;;;;;;;;;;6.30;99.90;;;;;;5102259;28;19908;-75
2020/12/13 03:32:40;;;;;;;;;;;6.30;99.90;;;;;;5092082;28;19953;-75
2020/12/13 03:35:05;;;;;;;;;;;6.20;99.90;;;;;;5099221;28;19958;-75
2020/12/13 03:37:31;;;;;;;;;;;6.20;99.90;;;;;;5093976;28;19908;-75
2020/12/13 03:39:57;;;;;;;;;;;6.20;99.90;;;;;;5098191;28;19912;-75
2020/12/13 03:42:22;;;;;;;;;;;6.30;99.90;;;;;;5104084;28;19916;-76
2020/12/13 03:44:48;;;;;;;;;;;6.40;99.90;;;;;;5109956;28;19980;-76
2020/12/13 03:47:13;;;;;;;;;;;6.30;99.90;;;;;;5099988;28;20015;-75
2020/12/13 03:49:39;;;;;;;;;;;6.30;99.90;;;;;;5093551;28;20451;-75
2020/12/13 03:52:04;;;;;;;;;;;6.40;99.90;;;;;;5099923;28;20380;-75
2020/12/13 03:54:31;;;;;;;;;;;6.40;99.90;;;;;;5105155;28;19958;-75
2020/12/13 03:56:56;;;;;;;;;;;6.30;99.90;;;;;;5086678;28;20786;-75
2020/12/13 03:59:22;;;;;;;;;;;6.20;99.90;;;;;;5091133;28;19990;-76
2020/12/13 04:01:47;;;;;;;;;;;6.30;99.90;;;;;;5090986;28;19988;-75
2020/12/13 04:04:13;;;;;;;;;;;6.30;99.90;;;;;;5104528;28;19904;-75
2020/12/13 04:06:38;;;;;;;;;;;6.30;99.90;;;;;;5102844;28;19908;-74
2020/12/13 04:09:04;;;;;;;;;;;6.30;99.90;;;;;;5100934;28;19910;-75
2020/12/13 04:11:31;;;;;;;;;;;6.30;99.90;;;;;;5103813;28;20315;-75
2020/12/13 04:13:56;;;;;;;;;;;6.30;99.90;;;;;;5096839;28;20493;-75
2020/12/13 04:16:22;;;;;;;;;;;6.30;99.90;;;;;;5094429;28;19950;-75
2020/12/13 04:18:47;;;;;;;;;;;6.30;99.90;;;;;;5093199;28;19910;-74
2020/12/13 04:21:13;;;;;;;;;;;6.30;99.90;;;;;;5102788;28;19908;-76
2020/12/13 04:23:38;;;;;;;;;;;6.30;99.90;;;;;;5098467;28;20332;-75
2020/12/13 04:26:04;;;;;;;;;;;6.20;99.90;;;;;;5103838;28;20479;-75
2020/12/13 04:28:29;;;;;;;;;;;6.30;99.90;;;;;;5090486;28;19911;-74
2020/12/13 04:30:55;;;;;;;;;;;6.30;99.90;;;;;;5102150;28;19917;-75
2020/12/13 04:33:20;;;;;;;;;;;6.40;99.90;;;;;;5097073;28;20383;-75
2020/12/13 04:35:46;;;;;;;;;;;6.40;99.90;;;;;;5107623;28;19912;-75
2020/12/13 04:38:11;;;;;;;;;;;6.30;99.90;;;;;;5093004;28;19904;-75
2020/12/13 04:40:37;;;;;;;;;;;6.40;99.90;;;;;;5090175;28;19915;-76
2020/12/13 04:43:03;;;;;;;;;;;6.30;99.90;;;;;;5094247;27;19904;-75
2020/12/13 04:45:29;;;;;;;;;;;6.30;99.90;;;;;;5107388;28;19964;-75
2020/12/13 04:48:04;;;;;;;;;;;6.30;99.90;;;;;;5090193;28;19947;-75
2020/12/13 04:50:31;;;;;;;;;;;6.30;99.90;;;;;;5099802;28;19912;-75
2020/12/13 04:52:57;;;;;;;;;;;6.30;99.90;;;;;;5089834;28;20237;-75
2020/12/13 04:55:23;;;;;;;;;;;6.30;99.90;;;;;;5089097;28;19972;-75
2020/12/13 04:57:48;;;;;;;;;;;6.50;99.90;;;;;;5097738;28;20484;-75
2020/12/13 05:00:16;;;;;;;;;;;6.30;99.90;;;;;;5090635;28;19904;-76
2020/12/13 05:02:42;;;;;;;;;;;6.50;99.90;;;;;;5079251;28;20002;-75
2020/12/13 05:05:10;;;;;;;;;;;6.40;99.90;;;;;;5109059;28;20469;-74
2020/12/13 05:07:35;;;;;;;;;;;6.40;99.90;;;;;;5094421;28;19904;-74
2020/12/13 05:10:01;;;;;;;;;;;6.50;99.90;;;;;;5107991;28;20393;-76
2020/12/13 05:12:27;;;;;;;;;;;6.50;99.90;;;;;;5093424;28;19994;-75
2020/12/13 05:14:52;;;;;;;;;;;6.40;99.90;;;;;;5105325;28;20060;-75
2020/12/13 05:17:18;;;;;;;;;;;6.40;99.90;;;;;;5094524;28;19986;-75
2020/12/13 05:19:43;;;;;;;;;;;6.20;99.90;;;;;;5103261;28;20002;-75
2020/12/13 05:22:09;;;;;;;;;;;6.10;99.90;;;;;;5102300;28;19949;-75
2020/12/13 05:24:35;;;;;;;;;;;6.20;99.90;;;;;;5103292;28;19916;-75
2020/12/13 05:27:02;;;;;;;;;;;6.40;99.90;;;;;;5097917;28;20274;-76
2020/12/13 05:29:29;;;;;;;;;;;6.30;99.90;;;;;;5101965;28;19907;-75
2020/12/13 05:32:07;;;;;;;;;;;6.30;99.90;;;;;;5102057;28;20017;-74
2020/12/13 05:34:33;;;;;;;;;;;6.20;99.90;;;;;;5101102;28;19915;-75
2020/12/13 05:36:58;;;;;;;;;;;6.30;99.90;;;;;;5102007;28;20370;-75
2020/12/13 05:39:24;;;;;;;;;;;6.30;99.90;;;;;;5100409;28;19914;-75
2020/12/13 05:41:51;;;;;;;;;;;6.30;99.90;;;;;;5098277;28;20524;-75
2020/12/13 05:52:11;;;;;;;;;;;6.50;99.90;;;;;;5097592;28;20508;-75
2020/12/13 05:54:37;;;;;;;;;;;6.50;99.90;;;;;;5095018;28;19919;-73
2020/12/13 05:57:03;;;;;;;;;;;7.60;99.90;;;;;;5098273;28;19991;-73
2020/12/13 05:59:29;;;;;;;;;;;7.20;99.90;;;;;;5098769;27;19916;-74
2020/12/13 06:01:59;;;;;;;;;;;7.00;99.90;;;;;;5097942;27;19912;-73
2020/12/13 06:04:32;;;;;;;;;;;6.90;99.90;;;;;;5095288;28;19903;-74
2020/12/13 06:06:58;;;;;;;;;;;6.90;99.90;;;;;;5101904;28;19926;-74
2020/12/13 06:09:36;;;;;;;;;;;6.90;99.90;;;;;;5085732;28;20447;-74
2020/12/13 06:12:03;;;;;;;;;;;6.90;99.90;;;;;;5106423;28;19907;-74
2020/12/13 06:14:29;;;;;;;;;;;6.90;99.90;;;;;;5097243;28;19999;-74
2020/12/13 06:16:56;;;;;;;;;;;6.80;99.90;;;;;;5101987;28;20007;-73
2020/12/13 06:19:23;;;;;;;;;;;6.90;99.90;;;;;;5102518;28;19915;-73
2020/12/13 06:21:48;;;;;;;;;;;6.90;99.90;;;;;;5079658;28;19923;-73
2020/12/13 06:24:14;;;;;;;;;;;6.90;99.90;;;;;;5076678;28;19908;-73
2020/12/13 06:26:40;;;;;;;;;;;6.90;99.90;;;;;;5098380;28;19915;-72
2020/12/13 06:29:06;;;;;;;;;;;6.80;99.90;;;;;;5105844;27;19919;-73
2020/12/13 06:31:33;;;;;;;;;;;6.80;99.90;;;;;;5107996;28;20378;-73
2020/12/13 06:33:59;;;;;;;;;;;6.70;99.90;;;;;;5110977;28;20012;-73
2020/12/13 06:36:24;;;;;;;;;;;6.60;99.90;;;;;;5105322;28;20328;-74
2020/12/13 06:38:51;;;;;;;;;;;6.70;99.90;;;;;;5107456;28;19964;-73
2020/12/13 06:41:19;;;;;;;;;;;6.80;99.90;;;;;;5103425;28;19919;-73
2020/12/13 06:44:02;;;;;;;;;;;6.70;99.90;;;;;;5106532;28;19931;-73
2020/12/13 06:46:28;;;;;;;;;;;6.90;99.90;;;;;;5101172;28;20418;-73
2020/12/13 06:48:54;;;;;;;;;;;6.90;99.90;;;;;;5095991;28;20073;-73
2020/12/13 06:51:23;;;;;;;;;;;6.80;99.90;;;;;;5091270;28;20007;-73
2020/12/13 06:53:49;;;;;;;;;;;7.00;99.90;;;;;;5103562;28;20371;-74
2020/12/13 06:56:15;;;;;;;;;;;6.90;99.90;;;;;;5097833;28;19923;-79
2020/12/13 06:58:44;;;;;;;;;;;6.90;99.90;;;;;;5094604;28;19912;-75
2020/12/13 07:01:14;;;;;;;;;;;6.80;99.90;;;;;;5097117;28;19916;-74
2020/12/13 07:03:39;;;;;;;;;;;6.90;99.90;;;;;;5094769;28;19923;-74
2020/12/13 07:06:06;;;;;;;;;;;6.80;99.90;;;;;;5096352;28;19912;-73
2020/12/13 07:08:32;;;;;;;;;;;7.00;99.90;;;;;;5095968;28;19908;-73
2020/12/13 07:10:59;;;;;;;;;;;6.80;99.90;;;;;;5095330;28;19962;-74
2020/12/13 07:13:26;;;;;;;;;;;7.00;99.90;;;;;;5101135;28;19975;-75
2020/12/13 07:15:57;;;;;;;;;;;6.80;99.90;;;;;;5096648;28;19908;-75
2020/12/13 07:18:22;;;;;;;;;;;6.90;99.90;;;;;;5080321;28;20327;-75
2020/12/13 07:20:48;;;;;;;;;;;6.90;99.90;;;;;;5108019;28;20015;-75
2020/12/13 07:23:13;;;;;;;;;;;6.80;99.90;;;;;;5093277;28;19919;-75
2020/12/13 07:25:39;;;;;;;;;;;6.80;99.90;;;;;;5106168;28;19920;-74
2020/12/13 07:28:06;;;;;;;;;;;6.70;99.90;;;;;;5099654;28;19982;-75
2020/12/13 07:30:32;;;;;;;;;;;6.60;99.90;;;;;;5104539;28;19984;-75
2020/12/13 07:32:57;;;;;;;;;;;6.70;99.90;;;;;;5102681;28;19911;-75
2020/12/13 07:35:23;;;;;;;;;;;6.70;99.90;;;;;;5096435;28;20334;-75
2020/12/13 07:37:50;;;;;;;;;;;6.60;99.90;;;;;;5095196;28;19943;-71
2020/12/13 07:40:15;;;;;;;;;;;6.50;99.90;;;;;;5102030;28;19915;-75
2020/12/13 07:42:54;;;;;;;;;;;6.40;99.90;;;;;;5093811;28;19918;-74
2020/12/13 07:45:20;;;;;;;;;;;6.50;99.90;;;;;;5104362;28;19915;-75
2020/12/13 07:48:00;;;;;;;;;;;6.50;99.90;;;;;;5102069;28;19919;-74
2020/12/13 07:50:46;;;;;;;;;;;6.50;99.90;;;;;;5103885;28;19943;-74
2020/12/13 07:53:22;;;;;;;;;;;6.40;99.90;;;;;;5095542;28;19919;-74
2020/12/13 07:55:47;;;;;;;;;;;6.40;99.90;;;;;;5090643;28;19918;-75
2020/12/13 07:58:17;;;;;;;;;;;6.40;99.90;;;;;;5099434;28;20389;-76
2020/12/13 08:00:43;;;;;;;;;;;6.30;99.90;;;;;;5103048;28;19927;-76
2020/12/13 08:03:09;;;;;;;;;;;6.40;99.90;;;;;;5091959;28;19908;-76
2020/12/13 08:05:35;;;;;;;;;;;6.30;99.90;;;;;;5101153;28;19977;-77
2020/12/13 08:08:00;;;;;;;;;;;6.30;99.90;;;;;;5100985;28;19919;-71
2020/12/13 08:10:30;;;;;;;;;;;6.20;99.90;;;;;;5108910;28;19904;-78
2020/12/13 08:12:56;;;;;;;;;;;6.50;99.90;;;;;;5096228;28;19919;-75
2020/12/13 08:15:22;;;;;;;;;;;6.70;99.90;;;;;;5104056;28;19911;-78
2020/12/13 08:18:04;;;;;;;;;;;6.60;99.90;;;;;;5092407;28;20004;-76
2020/12/13 08:20:31;;;;;;;;;;;6.80;99.90;;;;;;5077796;28;19994;-77
2020/12/13 08:22:57;;;;;;;;;;;6.80;99.90;;;;;;5091733;28;20316;-77
2020/12/13 08:25:23;;;;;;;;;;;6.90;99.90;;;;;;5085377;28;19904;-77
2020/12/13 08:27:49;;;;;;;;;;;7.00;99.90;;;;;;5092512;28;19914;-77
2020/12/13 08:30:18;;;;;;;;;;;7.10;99.90;;;;;;5107656;28;19908;-79
2020/12/13 08:32:44;;;;;;;;;;;7.40;99.90;;;;;;5102738;28;19900;-72
2020/12/13 08:35:14;;;;;;;;;;;7.90;99.90;;;;;;5105039;28;19923;-72
2020/12/13 08:37:40;;;;;;;;;;;7.60;99.90;;;;;;5093666;28;19915;-72
2020/12/13 08:40:09;;;;;;;;;;;7.70;99.90;;;;;;5096158;28;19934;-72
2020/12/13 08:42:35;;;;;;;;;;;7.90;99.90;;;;;;5097544;27;20152;-71
2020/12/13 08:45:00;;;;;;;;;;;8.30;99.90;;;;;;5101435;28;20138;-71
2020/12/13 08:47:31;;;;;;;;;;;8.20;99.90;;;;;;5102064;28;20366;-71
2020/12/13 08:49:56;;;;;;;;;;;8.20;99.90;;;;;;5095352;28;19904;-71
2020/12/13 08:52:26;;;;;;;;;;;7.90;99.90;;;;;;5099508;28;19968;-71
2020/12/13 08:54:55;;;;;;;;;;;8.10;99.90;;;;;;5098652;28;19918;-72
2020/12/13 08:57:27;;;;;;;;;;;8.10;99.90;;;;;;5100066;28;19907;-72
2020/12/13 08:59:59;;;;;;;;;;;8.00;99.90;;;;;;5098305;28;19966;-71
2020/12/13 09:02:24;;;;;;;;;;;8.10;99.90;;;;;;5101512;28;19908;-71
2020/12/13 09:04:53;;;;;;;;;;;8.10;99.90;;;;;;5097359;28;19907;-71
2020/12/13 09:07:20;;;;;;;;;;;8.10;99.90;;;;;;5100445;28;20193;-71
2020/12/13 09:09:46;;;;;;;;;;;8.30;99.90;;;;;;5100948;28;20364;-71
2020/12/13 09:12:18;;;;;;;;;;;8.20;99.90;;;;;;5102559;28;20301;-71
2020/12/13 09:14:44;;;;;;;;;;;8.20;99.90;;;;;;5094654;28;20146;-71
2020/12/13 09:17:10;;;;;;;;;;;8.30;99.90;;;;;;5095977;28;20479;-71
2020/12/13 09:19:48;;;;;;;;;;;8.40;99.90;;;;;;5099349;28;19903;-70
2020/12/13 09:22:18;;;;;;;;;;;8.40;99.90;;;;;;5102492;28;19908;-71
2020/12/13 09:24:44;;;;;;;;;;;8.50;99.90;;;;;;5100744;28;19951;-70
2020/12/13 09:27:18;;;;;;;;;;;8.60;99.90;;;;;;5100975;28;19960;-71
2020/12/13 09:29:43;;;;;;;;;;;8.60;99.90;;;;;;5080932;28;20044;-71
2020/12/13 09:32:09;;;;;;;;;;;8.70;99.90;;;;;;5102000;28;19991;-71
2020/12/13 09:34:36;;;;;;;;;;;8.70;99.90;;;;;;5098085;28;19919;-71
2020/12/13 09:37:02;;;;;;;;;;;8.90;99.90;;;;;;5102387;28;19966;-70
2020/12/13 09:39:28;;;;;;;;;;;9.10;99.90;;;;;;5097523;28;19919;-71
2020/12/13 09:41:54;;;;;;;;;;;9.10;99.90;;;;;;5097738;28;20419;-71
2020/12/13 09:44:20;;;;;;;;;;;9.10;99.90;;;;;;5091865;28;19903;-71
2020/12/13 09:46:46;;;;;;;;;;;9.10;99.90;;;;;;5099132;28;19920;-71
2020/12/13 09:49:11;;;;;;;;;;;9.00;99.90;;;;;;5090492;28;20013;-71
2020/12/13 09:51:37;;;;;;;;;;;9.00;99.90;;;;;;5100050;28;19988;-71
2020/12/13 09:54:02;;;;;;;;;;;9.20;99.90;;;;;;5103717;28;19959;-71
2020/12/13 09:56:28;;;;;;;;;;;9.40;99.90;;;;;;5082017;28;19911;-71
2020/12/13 09:58:53;;;;;;;;;;;9.60;99.90;;;;;;5100247;28;19910;-71
2020/12/13 10:01:19;;;;;;;;;;;9.70;99.90;;;;;;5105548;28;19915;-71
2020/12/13 10:03:48;;;;;;;;;;;9.70;99.90;;;;;;5097852;28;19904;-71
2020/12/13 10:09:01;;;;;;;;;;;9.70;99.90;;;;;;5097130;28;19976;-71
2020/12/13 10:11:30;;;;;;;;;;;9.70;99.90;;;;;;5103721;28;19905;-76
2020/12/13 10:13:56;;;;;;;;;;;9.90;99.90;;;;;;5095538;28;19919;-72
2020/12/13 10:16:21;;;;;;;;;;;9.90;99.90;;;;;;5108841;28;20089;-72
2020/12/13 10:18:47;;;;;;;;;;;10.10;99.90;;;;;;5094963;28;19905;-72
2020/12/13 10:21:12;;;;;;;;;;;10.20;99.90;;;;;;5090687;28;19912;-71
2020/12/13 10:23:38;;;;;;;;;;;10.30;99.90;;;;;;5104883;28;19991;-72
2020/12/13 10:26:03;;;;;;;;;;;10.40;99.90;;;;;;5105073;28;19908;-72
2020/12/13 10:28:29;;;;;;;;;;;10.40;99.90;;;;;;5097160;28;19919;-72
2020/12/13 10:30:54;;;;;;;;;;;10.30;99.90;;;;;;5103531;28;19933;-71
2020/12/13 10:33:20;;;;;;;;;;;10.50;99.90;;;;;;5096669;28;19930;-72
2020/12/13 10:35:46;;;;;;;;;;;10.40;99.90;;;;;;5089358;28;19919;-71
2020/12/13 10:38:12;;;;;;;;;;;10.10;99.90;;;;;;5098076;28;20284;-72
2020/12/13 10:40:38;;;;;;;;;;;10.30;99.90;;;;;;5088529;28;19911;-72
2020/12/13 10:43:03;;;;;;;;;;;10.10;99.90;;;;;;5091255;28;19904;-72
2020/12/13 10:45:29;;;;;;;;;;;10.10;99.90;;;;;;5091042;28;19922;-72
2020/12/13 10:47:54;;;;;;;;;;;10.00;99.90;;;;;;5103106;28;19989;-72
2020/12/13 10:50:20;;;;;;;;;;;10.10;99.90;;;;;;5091861;28;19911;-73
2020/12/13 10:52:46;;;;;;;;;;;10.00;99.90;;;;;;5103213;28;20010;-72
2020/12/13 10:55:11;;;;;;;;;;;10.00;99.90;;;;;;5091737;28;19919;-71
2020/12/13 10:57:37;;;;;;;;;;;10.10;99.90;;;;;;5103167;28;19904;-72
2020/12/13 11:00:03;;;;;;;;;;;10.00;99.90;;;;;;5073199;28;19914;-72
2020/12/13 11:02:29;;;;;;;;;;;10.00;99.90;;;;;;5102995;28;20010;-72
2020/12/13 11:04:54;;;;;;;;;;;10.00;99.90;;;;;;5091640;28;20482;-72
2020/12/13 11:07:20;;;;;;;;;;;10.00;99.90;;;;;;5101555;28;19981;-72
2020/12/13 11:09:46;;;;;;;;;;;10.00;99.90;;;;;;5092619;28;20457;-72
2020/12/13 11:12:11;;;;;;;;;;;9.90;99.90;;;;;;5100352;28;20328;-71
2020/12/13 11:14:37;;;;;;;;;;;10.00;99.90;;;;;;5093695;28;20557;-72
2020/12/13 11:17:02;;;;;;;;;;;10.00;99.90;;;;;;5094593;28;19904;-72
2020/12/13 11:19:28;;;;;;;;;;;10.00;99.90;;;;;;5096413;28;19984;-72
2020/12/13 11:21:54;;;;;;;;;;;9.80;99.90;;;;;;5102650;28;19995;-73
2020/12/13 11:24:20;;;;;;;;;;;10.00;99.90;;;;;;5096902;28;20342;-72
2020/12/13 11:26:48;;;;;;;;;;;9.90;99.90;;;;;;5097443;28;19908;-72
2020/12/13 11:29:14;;;;;;;;;;;10.10;99.90;;;;;;5095276;28;19908;-72
2020/12/13 11:31:39;;;;;;;;;;;10.20;99.90;;;;;;5099554;28;20465;-72
2020/12/13 11:34:05;;;;;;;;;;;10.40;99.90;;;;;;5103630;28;19916;-72
2020/12/13 11:36:30;;;;;;;;;;;10.20;99.90;;;;;;5086117;28;19985;-72
2020/12/13 11:38:56;;;;;;;;;;;10.20;99.90;;;;;;5099142;28;20019;-72
2020/12/13 11:41:26;;;;;;;;;;;10.40;99.90;;;;;;5093739;28;19986;-72
2020/12/13 11:43:51;;;;;;;;;;;10.30;99.90;;;;;;5098275;28;19939;-72
2020/12/13 11:46:17;;;;;;;;;;;10.40;99.90;;;;;;5092870;28;19956;-72
2020/12/13 11:48:43;;;;;;;;;;;10.30;99.90;;;;;;5099425;28;19920;-72
2020/12/13 11:51:08;;;;;;;;;;;10.30;99.90;;;;;;5092819;28;19907;-72
2020/12/13 11:53:34;;;;;;;;;;;10.60;99.90;;;;;;5106916;28;19907;-72
2020/12/13 11:55:59;;;;;;;;;;;10.60;99.90;;;;;;5106931;28;19944;-72
2020/12/13 11:58:25;;;;;;;;;;;10.60;99.90;;;;;;5099247;28;19908;-72
2020/12/13 12:00:50;;;;;;;;;;;10.80;99.90;;;;;;5092318;28;19912;-72
2020/12/13 12:03:16;;;;;;;;;;;10.80;99.90;;;;;;5101917;28;20380;-72
2020/12/13 12:05:41;;;;;;;;;;;10.80;99.90;;;;;;5090838;28;19911;-72
2020/12/13 12:08:07;;;;;;;;;;;10.80;99.90;;;;;;5082361;28;19904;-72
2020/12/13 12:10:32;;;;;;;;;;;10.80;99.90;;;;;;5090339;28;19939;-72
2020/12/13 12:12:58;;;;;;;;;;;10.90;99.90;;;;;;5101425;28;19935;-72
2020/12/13 12:15:23;;;;;;;;;;;10.90;99.90;;;;;;5087287;28;19923;-72
2020/12/13 12:17:49;;;;;;;;;;;10.80;99.90;;;;;;5106110;28;19954;-72
2020/12/13 12:20:18;;;;;;;;;;;10.70;99.90;;;;;;5090115;28;19900;-71
2020/12/13 12:22:45;;;;;;;;;;;10.70;99.90;;;;;;5101347;28;20351;-72
2020/12/13 12:25:11;;;;;;;;;;;10.90;99.90;;;;;;5090045;28;20355;-71
2020/12/13 12:27:36;;;;;;;;;;;10.70;99.90;;;;;;5101352;28;19908;-71
2020/12/13 12:30:02;;;;;;;;;;;10.70;99.90;;;;;;5099149;28;20004;-71
2020/12/13 12:32:28;;;;;;;;;;;10.70;99.90;;;;;;5091913;28;19943;-71
2020/12/13 12:34:54;;;;;;;;;;;10.70;99.90;;;;;;5095977;28;20131;-72
2020/12/13 12:37:19;;;;;;;;;;;10.90;99.90;;;;;;5096579;28;19908;-71
2020/12/13 12:39:45;;;;;;;;;;;10.90;99.90;;;;;;5095762;28;19953;-72
2020/12/13 12:42:10;;;;;;;;;;;11.00;99.90;;;;;;5103912;27;20457;-71
2020/12/13 12:44:36;;;;;;;;;;;11.10;99.90;;;;;;5083090;28;19907;-71
2020/12/13 12:47:01;;;;;;;;;;;11.10;99.90;;;;;;5092348;28;19966;-71
2020/12/13 12:49:27;;;;;;;;;;;11.30;99.90;;;;;;5092030;28;19908;-71
2020/12/13 12:51:52;;;;;;;;;;;11.40;99.90;;;;;;5092939;28;19916;-71
2020/12/13 12:54:19;;;;;;;;;;;11.00;99.90;;;;;;5101469;28;19919;-72
2020/12/13 12:56:45;;;;;;;;;;;11.00;99.90;;;;;;5091041;28;20395;-71
2020/12/13 12:59:13;;;;;;;;;;;11.00;99.90;;;;;;5088422;28;20004;-71
2020/12/13 13:01:45;;;;;;;;;;;11.20;99.90;;;;;;5093507;28;19904;-72
2020/12/13 13:04:13;;;;;;;;;;;11.20;99.90;;;;;;5100226;28;19908;-71
2020/12/13 13:06:48;;;;;;;;;;;11.20;99.90;;;;;;5102644;28;19985;-71
2020/12/13 13:11:39;;;;;;;;;;;11.20;99.90;;;;;;5092862;28;19908;-71
2020/12/13 13:14:05;;;;;;;;;;;11.10;99.90;;;;;;5090666;28;19916;-71
2020/12/13 13:16:31;;;;;;;;;;;11.30;99.90;;;;;;5072033;28;19980;-71
2020/12/13 13:19:03;;;;;;;;;;;11.30;99.90;;;;;;5088877;28;19983;-71
2020/12/13 13:21:34;;;;;;;;;;;11.30;99.90;;;;;;5093709;28;20408;-71
2020/12/13 13:23:59;;;;;;;;;;;11.50;99.90;;;;;;5092475;28;19904;-71
2020/12/13 13:26:26;;;;;;;;;;;11.50;99.90;;;;;;5094594;28;20036;-71
2020/12/13 13:28:51;;;;;;;;;;;11.50;99.90;;;;;;5091773;27;19931;-71
2020/12/13 13:31:17;;;;;;;;;;;11.50;99.90;;;;;;5094293;28;20364;-71
2020/12/13 13:33:43;;;;;;;;;;;11.40;99.90;;;;;;5092720;28;20028;-72
2020/12/13 13:36:10;;;;;;;;;;;11.40;99.90;;;;;;5091329;28;19916;-71
2020/12/13 13:38:36;;;;;;;;;;;11.40;99.90;;;;;;5088508;28;19957;-72
2020/12/13 13:41:02;;;;;;;;;;;11.50;99.90;;;;;;5085339;28;19991;-72
2020/12/13 13:43:30;;;;;;;;;;;11.50;99.90;;;;;;5092979;28;19911;-72
2020/12/13 13:46:29;;;;;;;;;;;11.50;99.90;;;;;;5088498;28;19928;-72
2020/12/13 13:51:25;;;;;;;;;;;11.40;99.90;;;;;;5090055;28;19919;-71
2020/12/13 13:53:51;;;;;;;;;;;11.30;99.90;;;;;;5097764;28;19904;-72
2020/12/13 13:56:17;;;;;;;;;;;11.40;99.90;;;;;;5092680;28;19959;-73
2020/12/13 13:58:46;;;;;;;;;;;11.50;99.90;;;;;;5096596;28;20154;-71
2020/12/13 14:01:11;;;;;;;;;;;11.40;99.90;;;;;;5104645;28;19903;-73
2020/12/13 14:03:37;;;;;;;;;;;11.40;99.90;;;;;;5092241;28;19987;-72
2020/12/13 14:06:08;;;;;;;;;;;11.50;99.90;;;;;;5098373;28;20323;-72
2020/12/13 14:08:43;;;;;;;;;;;11.40;99.90;;;;;;5091094;28;19908;-72
2020/12/13 14:11:12;;;;;;;;;;;11.50;99.90;;;;;;5094542;28;19923;-72
2020/12/13 14:13:38;;;;;;;;;;;11.60;99.90;;;;;;5091215;28;19908;-72
2020/12/13 14:16:03;;;;;;;;;;;11.70;99.90;;;;;;5099300;28;20512;-72
2020/12/13 14:18:29;;;;;;;;;;;11.50;99.90;;;;;;5088037;28;20007;-73
2020/12/13 14:20:56;;;;;;;;;;;11.50;99.90;;;;;;5077427;28;19912;-71
2020/12/13 14:23:22;;;;;;;;;;;11.50;99.90;;;;;;5096828;28;20031;-71
2020/12/13 14:25:52;;;;;;;;;;;11.50;99.90;;;;;;5096992;28;19904;-71
2020/12/13 14:28:19;;;;;;;;;;;11.50;99.90;;;;;;5101383;27;19932;-72
2020/12/13 14:30:45;;;;;;;;;;;11.50;99.90;;;;;;5097633;28;19981;-72
2020/12/13 14:33:10;;;;;;;;;;;11.50;99.90;;;;;;5098610;28;20384;-72
2020/12/13 14:35:36;;;;;;;;;;;11.60;99.90;;;;;;5102009;28;20025;-72
2020/12/13 14:38:03;;;;;;;;;;;11.60;99.90;;;;;;5098023;28;19907;-73